sensor_id;sensor_type;location;lat;lon;timestamp;pressure;altitude;pressure_sealevel;temperature;humidity
15405;BME280;7801;48.124;11.590;2024-02-26T00:00:08;93722.31;;;5.33;80.56
15405;BME280;7801;48.124;11.590;2024-02-26T00:02:37;93719.84;;;5.36;80.36
15405;BME280;7801;48.124;11.590;2024-02-26T00:05:06;93713.13;;;4.86;81.58
15405;BME280;7801;48.124;11.590;2024-02-26T00:07:33;93717.28;;;4.64;82.55
15405;BME280;7801;48.124;11.590;2024-02-26T00:09:58;93717.16;;;4.69;82.75
15405;BME280;7801;48.124;11.590;2024-02-26T00:12:23;93711.72;;;4.66;82.90
15405;BME280;7801;48.124;11.590;2024-02-26T00:14:49;93712.69;;;4.70;82.63
15405;BME280;7801;48.124;11.590;2024-02-26T00:17:15;93705.34;;;4.80;82.19
15405;BME280;7801;48.124;11.590;2024-02-26T00:19:40;93710.16;;;5.01;81.15
15405;BME280;7801;48.124;11.590;2024-02-26T00:22:06;93708.56;;;5.13;80.74
15405;BME280;7801;48.124;11.590;2024-02-26T00:24:31;93711.13;;;5.05;80.43
15405;BME280;7801;48.124;11.590;2024-02-26T00:26:56;93719.75;;;4.83;80.37
15405;BME280;7801;48.124;11.590;2024-02-26T00:29:22;93709.22;;;4.97;80.23
15405;BME280;7801;48.124;11.590;2024-02-26T00:31:48;93705.09;;;5.04;80.07
15405;BME280;7801;48.124;11.590;2024-02-26T00:34:13;93706.19;;;4.67;80.98
15405;BME280;7801;48.124;11.590;2024-02-26T00:36:39;93704.72;;;4.75;80.85
15405;BME280;7801;48.124;11.590;2024-02-26T00:39:04;93692.91;;;4.86;80.18
15405;BME280;7801;48.124;11.590;2024-02-26T00:41:29;93696.31;;;5.09;79.38
15405;BME280;7801;48.124;11.590;2024-02-26T00:43:55;93692.13;;;5.08;79.41
15405;BME280;7801;48.124;11.590;2024-02-26T00:46:20;93698.41;;;4.98;79.36
15405;BME280;7801;48.124;11.590;2024-02-26T00:48:45;93699.41;;;5.11;78.53
15405;BME280;7801;48.124;11.590;2024-02-26T00:51:11;93685.09;;;5.17;78.22
15405;BME280;7801;48.124;11.590;2024-02-26T00:53:36;93690.16;;;5.13;78.44
15405;BME280;7801;48.124;11.590;2024-02-26T00:56:01;93686.03;;;5.21;77.82
15405;BME280;7801;48.124;11.590;2024-02-26T00:58:27;93683.28;;;5.04;78.41
15405;BME280;7801;48.124;11.590;2024-02-26T01:00:52;93675.50;;;5.21;77.52
15405;BME280;7801;48.124;11.590;2024-02-26T01:03:18;93681.25;;;5.23;77.50
15405;BME280;7801;48.124;11.590;2024-02-26T01:05:44;93680.63;;;5.17;77.59
15405;BME280;7801;48.124;11.590;2024-02-26T01:08:10;93684.53;;;5.29;77.19
15405;BME280;7801;48.124;11.590;2024-02-26T01:10:35;93684.34;;;5.25;77.48
15405;BME280;7801;48.124;11.590;2024-02-26T01:13:01;93686.38;;;5.28;77.01
15405;BME280;7801;48.124;11.590;2024-02-26T01:15:26;93694.66;;;5.13;77.11
15405;BME280;7801;48.124;11.590;2024-02-26T01:17:52;93694.06;;;4.80;78.56
15405;BME280;7801;48.124;11.590;2024-02-26T01:20:18;93689.31;;;4.46;80.22
15405;BME280;7801;48.124;11.590;2024-02-26T01:22:44;93689.09;;;4.56;80.04
15405;BME280;7801;48.124;11.590;2024-02-26T01:25:09;93692.75;;;4.33;81.08
15405;BME280;7801;48.124;11.590;2024-02-26T01:27:36;93692.88;;;4.14;81.83
15405;BME280;7801;48.124;11.590;2024-02-26T01:30:05;93683.37;;;4.40;81.13
15405;BME280;7801;48.124;11.590;2024-02-26T01:32:31;93678.72;;;4.51;80.92
15405;BME280;7801;48.124;11.590;2024-02-26T01:34:57;93673.88;;;4.31;80.92
15405;BME280;7801;48.124;11.590;2024-02-26T01:37:22;93686.62;;;4.24;81.83
15405;BME280;7801;48.124;11.590;2024-02-26T01:39:48;93677.44;;;4.48;80.72
15405;BME280;7801;48.124;11.590;2024-02-26T01:42:13;93680.84;;;4.49;80.79
15405;BME280;7801;48.124;11.590;2024-02-26T01:44:40;93677.34;;;4.54;80.24
15405;BME280;7801;48.124;11.590;2024-02-26T01:47:07;93682.78;;;4.57;79.62
15405;BME280;7801;48.124;11.590;2024-02-26T01:49:33;93679.53;;;4.74;79.26
15405;BME280;7801;48.124;11.590;2024-02-26T01:52:01;93675.63;;;4.71;78.65
15405;BME280;7801;48.124;11.590;2024-02-26T01:54:27;93680.88;;;4.71;79.19
15405;BME280;7801;48.124;11.590;2024-02-26T01:56:53;93680.75;;;4.54;79.42
15405;BME280;7801;48.124;11.590;2024-02-26T01:59:19;93687.75;;;4.45;80.56
15405;BME280;7801;48.124;11.590;2024-02-26T02:01:48;93682.03;;;4.43;80.48
15405;BME280;7801;48.124;11.590;2024-02-26T02:04:18;93674.00;;;4.26;80.89
15405;BME280;7801;48.124;11.590;2024-02-26T02:06:45;93670.88;;;4.24;81.51
15405;BME280;7801;48.124;11.590;2024-02-26T02:09:11;93662.72;;;4.25;81.41
15405;BME280;7801;48.124;11.590;2024-02-26T02:11:37;93660.03;;;4.53;80.03
15405;BME280;7801;48.124;11.590;2024-02-26T02:14:02;93667.25;;;4.47;80.16
15405;BME280;7801;48.124;11.590;2024-02-26T02:16:27;93660.94;;;4.70;79.37
15405;BME280;7801;48.124;11.590;2024-02-26T02:18:53;93662.44;;;4.63;79.53
15405;BME280;7801;48.124;11.590;2024-02-26T02:21:19;93657.44;;;4.75;78.96
15405;BME280;7801;48.124;11.590;2024-02-26T02:23:44;93654.25;;;4.64;78.81
15405;BME280;7801;48.124;11.590;2024-02-26T02:26:12;93656.81;;;4.06;80.58
15405;BME280;7801;48.124;11.590;2024-02-26T02:28:39;93653.53;;;3.73;81.86
15405;BME280;7801;48.124;11.590;2024-02-26T02:31:05;93649.72;;;3.79;82.33
15405;BME280;7801;48.124;11.590;2024-02-26T02:33:34;93654.97;;;4.06;81.38
15405;BME280;7801;48.124;11.590;2024-02-26T02:36:00;93648.56;;;4.12;81.31
15405;BME280;7801;48.124;11.590;2024-02-26T02:38:26;93653.38;;;4.33;80.02
15405;BME280;7801;48.124;11.590;2024-02-26T02:40:54;93658.66;;;4.05;80.74
15405;BME280;7801;48.124;11.590;2024-02-26T02:43:20;93652.47;;;4.37;79.61
15405;BME280;7801;48.124;11.590;2024-02-26T02:45:45;93655.44;;;4.08;80.12
15405;BME280;7801;48.124;11.590;2024-02-26T02:48:11;93653.09;;;4.21;80.06
15405;BME280;7801;48.124;11.590;2024-02-26T02:50:36;93653.19;;;4.29;79.68
15405;BME280;7801;48.124;11.590;2024-02-26T02:53:01;93659.16;;;4.43;78.95
15405;BME280;7801;48.124;11.590;2024-02-26T02:55:27;93654.50;;;4.54;78.34
15405;BME280;7801;48.124;11.590;2024-02-26T02:57:53;93660.56;;;4.27;78.84
15405;BME280;7801;48.124;11.590;2024-02-26T03:00:18;93655.78;;;4.43;78.15
15405;BME280;7801;48.124;11.590;2024-02-26T03:02:44;93658.81;;;4.23;79.03
15405;BME280;7801;48.124;11.590;2024-02-26T03:05:10;93657.19;;;3.99;80.30
15405;BME280;7801;48.124;11.590;2024-02-26T03:07:35;93650.69;;;4.10;80.15
15405;BME280;7801;48.124;11.590;2024-02-26T03:10:01;93657.00;;;4.09;80.43
15405;BME280;7801;48.124;11.590;2024-02-26T03:12:26;93641.28;;;4.45;78.88
15405;BME280;7801;48.124;11.590;2024-02-26T03:14:53;93643.75;;;4.64;77.70
15405;BME280;7801;48.124;11.590;2024-02-26T03:17:19;93643.22;;;4.54;77.75
15405;BME280;7801;48.124;11.590;2024-02-26T03:19:45;93635.38;;;4.62;77.63
15405;BME280;7801;48.124;11.590;2024-02-26T03:22:12;93635.75;;;4.47;77.95
15405;BME280;7801;48.124;11.590;2024-02-26T03:24:38;93632.72;;;4.40;77.68
15405;BME280;7801;48.124;11.590;2024-02-26T03:27:04;93639.78;;;4.31;77.99
15405;BME280;7801;48.124;11.590;2024-02-26T03:29:35;93633.19;;;4.56;77.34
15405;BME280;7801;48.124;11.590;2024-02-26T03:32:02;93630.97;;;4.49;77.33
15405;BME280;7801;48.124;11.590;2024-02-26T03:34:28;93638.94;;;4.44;77.53
15405;BME280;7801;48.124;11.590;2024-02-26T03:36:56;93641.38;;;4.76;75.93
15405;BME280;7801;48.124;11.590;2024-02-26T03:39:22;93647.03;;;4.70;75.94
15405;BME280;7801;48.124;11.590;2024-02-26T03:41:48;93648.78;;;4.74;76.24
15405;BME280;7801;48.124;11.590;2024-02-26T03:44:15;93650.50;;;4.79;75.78
15405;BME280;7801;48.124;11.590;2024-02-26T03:46:41;93656.66;;;4.74;75.83
15405;BME280;7801;48.124;11.590;2024-02-26T03:49:09;93649.69;;;4.92;74.71
15405;BME280;7801;48.124;11.590;2024-02-26T03:51:35;93647.03;;;4.70;75.42
15405;BME280;7801;48.124;11.590;2024-02-26T03:54:01;93645.50;;;4.69;75.68
15405;BME280;7801;48.124;11.590;2024-02-26T03:56:27;93637.72;;;4.64;76.25
15405;BME280;7801;48.124;11.590;2024-02-26T03:58:55;93643.53;;;4.74;75.66
15405;BME280;7801;48.124;11.590;2024-02-26T04:01:21;93643.53;;;4.74;75.28
15405;BME280;7801;48.124;11.590;2024-02-26T04:03:49;93639.69;;;4.80;75.28
15405;BME280;7801;48.124;11.590;2024-02-26T04:06:16;93631.22;;;4.83;75.06
15405;BME280;7801;48.124;11.590;2024-02-26T04:08:45;93630.97;;;4.49;75.71
15405;BME280;7801;48.124;11.590;2024-02-26T04:11:11;93637.47;;;4.52;76.48
15405;BME280;7801;48.124;11.590;2024-02-26T04:13:37;93639.56;;;4.63;75.92
15405;BME280;7801;48.124;11.590;2024-02-26T04:16:07;93645.59;;;4.64;75.81
15405;BME280;7801;48.124;11.590;2024-02-26T04:18:33;93639.69;;;4.80;75.17
15405;BME280;7801;48.124;11.590;2024-02-26T04:20:59;93633.31;;;4.37;76.54
15405;BME280;7801;48.124;11.590;2024-02-26T04:23:25;93634.69;;;4.70;75.58
15405;BME280;7801;48.124;11.590;2024-02-26T04:25:55;93640.34;;;4.64;75.88
15405;BME280;7801;48.124;11.590;2024-02-26T04:28:20;93644.75;;;4.55;75.76
15405;BME280;7801;48.124;11.590;2024-02-26T04:30:47;93651.81;;;4.32;76.25
15405;BME280;7801;48.124;11.590;2024-02-26T04:33:14;93651.81;;;4.18;76.65
15405;BME280;7801;48.124;11.590;2024-02-26T04:35:41;93643.72;;;3.92;77.28
15405;BME280;7801;48.124;11.590;2024-02-26T04:38:08;93648.91;;;4.33;76.25
15405;BME280;7801;48.124;11.590;2024-02-26T04:40:33;93651.19;;;4.48;75.91
15405;BME280;7801;48.124;11.590;2024-02-26T04:42:59;93651.19;;;4.48;75.30
15405;BME280;7801;48.124;11.590;2024-02-26T04:45:25;93647.31;;;4.46;75.65
15405;BME280;7801;48.124;11.590;2024-02-26T04:47:50;93656.06;;;4.41;75.91
15405;BME280;7801;48.124;11.590;2024-02-26T04:50:16;93650.03;;;4.55;75.48
15405;BME280;7801;48.124;11.590;2024-02-26T04:52:43;93645.88;;;4.62;74.54
15405;BME280;7801;48.124;11.590;2024-02-26T04:55:08;93648.22;;;4.64;74.08
15405;BME280;7801;48.124;11.590;2024-02-26T04:57:37;93640.03;;;4.43;74.85
15405;BME280;7801;48.124;11.590;2024-02-26T05:00:05;93647.41;;;4.41;75.09
15405;BME280;7801;48.124;11.590;2024-02-26T05:02:30;93645.06;;;4.39;75.69
15405;BME280;7801;48.124;11.590;2024-02-26T05:04:59;93647.16;;;4.29;75.82
15405;BME280;7801;48.124;11.590;2024-02-26T05:07:25;93635.03;;;4.55;74.96
15405;BME280;7801;48.124;11.590;2024-02-26T05:09:52;93645.69;;;4.72;73.48
15405;BME280;7801;48.124;11.590;2024-02-26T05:12:18;93644.81;;;4.63;73.77
15405;BME280;7801;48.124;11.590;2024-02-26T05:14:43;93644.16;;;4.58;74.04
15405;BME280;7801;48.124;11.590;2024-02-26T05:17:10;93648.47;;;4.40;73.98
15405;BME280;7801;48.124;11.590;2024-02-26T05:19:36;93640.88;;;4.52;74.34
15405;BME280;7801;48.124;11.590;2024-02-26T05:22:02;93640.34;;;4.64;73.62
15405;BME280;7801;48.124;11.590;2024-02-26T05:24:28;93645.78;;;4.31;74.65
15405;BME280;7801;48.124;11.590;2024-02-26T05:26:55;93657.06;;;4.32;74.74
15405;BME280;7801;48.124;11.590;2024-02-26T05:29:21;93652.84;;;4.44;74.22
15405;BME280;7801;48.124;11.590;2024-02-26T05:31:49;93658.44;;;4.29;74.28
15405;BME280;7801;48.124;11.590;2024-02-26T05:34:14;93656.78;;;4.33;74.02
15405;BME280;7801;48.124;11.590;2024-02-26T05:36:39;93658.41;;;4.43;73.51
15405;BME280;7801;48.124;11.590;2024-02-26T05:39:04;93661.25;;;4.69;72.91
15405;BME280;7801;48.124;11.590;2024-02-26T05:41:30;93666.13;;;4.62;72.94
15405;BME280;7801;48.124;11.590;2024-02-26T05:43:56;93662.22;;;4.59;72.83
15405;BME280;7801;48.124;11.590;2024-02-26T05:46:23;93662.72;;;4.61;72.86
15405;BME280;7801;48.124;11.590;2024-02-26T05:49:00;93664.09;;;4.81;71.87
15405;BME280;7801;48.124;11.590;2024-02-26T05:51:26;93662.75;;;4.83;71.59
15405;BME280;7801;48.124;11.590;2024-02-26T05:53:52;93659.03;;;4.84;71.17
15405;BME280;7801;48.124;11.590;2024-02-26T05:56:21;93662.41;;;4.99;70.40
15405;BME280;7801;48.124;11.590;2024-02-26T05:58:47;93661.97;;;4.83;71.34
15405;BME280;7801;48.124;11.590;2024-02-26T06:01:15;93670.88;;;4.60;72.37
15405;BME280;7801;48.124;11.590;2024-02-26T06:03:45;93675.03;;;4.74;72.11
15405;BME280;7801;48.124;11.590;2024-02-26T06:06:11;93671.41;;;4.84;71.45
15405;BME280;7801;48.124;11.590;2024-02-26T06:08:37;93672.66;;;4.87;71.51
15405;BME280;7801;48.124;11.590;2024-02-26T06:11:09;93676.66;;;4.84;71.45
15405;BME280;7801;48.124;11.590;2024-02-26T06:13:36;93681.38;;;5.18;70.16
15405;BME280;7801;48.124;11.590;2024-02-26T06:16:02;93684.63;;;5.15;70.10
15405;BME280;7801;48.124;11.590;2024-02-26T06:18:33;93682.69;;;5.07;70.32
15405;BME280;7801;48.124;11.590;2024-02-26T06:21:08;93695.25;;;5.10;69.47
15405;BME280;7801;48.124;11.590;2024-02-26T06:23:44;93693.38;;;5.10;69.64
15405;BME280;7801;48.124;11.590;2024-02-26T06:26:11;93697.56;;;4.89;69.78
15405;BME280;7801;48.124;11.590;2024-02-26T06:28:36;93692.25;;;5.03;69.83
15405;BME280;7801;48.124;11.590;2024-02-26T06:31:10;93706.94;;;5.26;69.55
15405;BME280;7801;48.124;11.590;2024-02-26T06:33:35;93702.56;;;5.44;68.44
15405;BME280;7801;48.124;11.590;2024-02-26T06:36:01;93714.81;;;5.48;68.10
15405;BME280;7801;48.124;11.590;2024-02-26T06:38:28;93713.69;;;4.96;69.06
15405;BME280;7801;48.124;11.590;2024-02-26T06:40:54;93711.31;;;5.08;69.38
15405;BME280;7801;48.124;11.590;2024-02-26T06:43:19;93719.00;;;5.27;69.24
15405;BME280;7801;48.124;11.590;2024-02-26T06:45:45;93719.66;;;5.33;69.31
15405;BME280;7801;48.124;11.590;2024-02-26T06:48:10;93721.41;;;5.37;68.79
15405;BME280;7801;48.124;11.590;2024-02-26T06:50:39;93728.06;;;5.43;68.35
15405;BME280;7801;48.124;11.590;2024-02-26T06:53:05;93731.56;;;5.61;67.72
15405;BME280;7801;48.124;11.590;2024-02-26T06:55:33;93743.37;;;5.41;67.89
15405;BME280;7801;48.124;11.590;2024-02-26T06:57:58;93750.19;;;5.42;67.96
15405;BME280;7801;48.124;11.590;2024-02-26T07:00:25;93749.84;;;5.58;67.96
15405;BME280;7801;48.124;11.590;2024-02-26T07:02:50;93749.34;;;5.78;66.69
15405;BME280;7801;48.124;11.590;2024-02-26T07:05:15;93740.59;;;5.91;65.73
15405;BME280;7801;48.124;11.590;2024-02-26T07:07:42;93745.28;;;5.72;67.36
15405;BME280;7801;48.124;11.590;2024-02-26T07:10:09;93739.81;;;5.91;66.84
15405;BME280;7801;48.124;11.590;2024-02-26T07:12:36;93742.63;;;5.94;67.17
15405;BME280;7801;48.124;11.590;2024-02-26T07:15:02;93743.03;;;5.87;67.28
15405;BME280;7801;48.124;11.590;2024-02-26T07:17:28;93747.62;;;6.04;66.17
15405;BME280;7801;48.124;11.590;2024-02-26T07:19:55;93748.84;;;5.98;66.03
15405;BME280;7801;48.124;11.590;2024-02-26T07:22:22;93757.69;;;6.02;65.62
15405;BME280;7801;48.124;11.590;2024-02-26T07:24:48;93750.13;;;6.09;65.16
15405;BME280;7801;48.124;11.590;2024-02-26T07:27:15;93749.09;;;6.19;65.55
15405;BME280;7801;48.124;11.590;2024-02-26T07:29:44;93742.44;;;6.30;64.84
15405;BME280;7801;48.124;11.590;2024-02-26T07:32:09;93747.16;;;6.02;65.90
15405;BME280;7801;48.124;11.590;2024-02-26T07:34:35;93751.19;;;6.00;65.38
15405;BME280;7801;48.124;11.590;2024-02-26T07:37:06;93745.38;;;6.20;64.83
15405;BME280;7801;48.124;11.590;2024-02-26T07:39:31;93748.94;;;6.24;65.11
15405;BME280;7801;48.124;11.590;2024-02-26T07:41:58;93748.78;;;6.20;65.08
15405;BME280;7801;48.124;11.590;2024-02-26T07:44:24;93740.59;;;6.31;64.71
15405;BME280;7801;48.124;11.590;2024-02-26T07:46:49;93758.31;;;6.47;64.66
15405;BME280;7801;48.124;11.590;2024-02-26T07:49:15;93762.88;;;6.73;62.56
15405;BME280;7801;48.124;11.590;2024-02-26T07:51:40;93747.09;;;10.10;100.00
15405;BME280;7801;48.124;11.590;2024-02-26T07:54:06;93743.72;;;10.95;97.62
15405;BME280;7801;48.124;11.590;2024-02-26T07:56:31;93751.78;;;11.79;80.15
15405;BME280;7801;48.124;11.590;2024-02-26T07:58:57;93756.75;;;12.24;72.00
15405;BME280;7801;48.124;11.590;2024-02-26T08:01:23;93763.38;;;12.61;67.48
15405;BME280;7801;48.124;11.590;2024-02-26T08:03:50;93760.28;;;12.44;55.57
15405;BME280;7801;48.124;11.590;2024-02-26T08:06:16;93766.81;;;12.62;54.10
15405;BME280;7801;48.124;11.590;2024-02-26T08:08:43;93763.28;;;12.73;52.97
15405;BME280;7801;48.124;11.590;2024-02-26T08:11:10;93763.97;;;12.70;52.05
15405;BME280;7801;48.124;11.590;2024-02-26T08:13:36;93767.13;;;12.76;51.62
15405;BME280;7801;48.124;11.590;2024-02-26T08:16:02;93759.81;;;12.89;56.08
15405;BME280;7801;48.124;11.590;2024-02-26T08:18:28;93761.88;;;12.95;61.58
15405;BME280;7801;48.124;11.590;2024-02-26T08:20:55;93758.94;;;13.00;60.28
15405;BME280;7801;48.124;11.590;2024-02-26T08:23:20;93762.75;;;12.84;53.27
15405;BME280;7801;48.124;11.590;2024-02-26T08:25:47;93760.19;;;12.87;51.50
15405;BME280;7801;48.124;11.590;2024-02-26T08:28:14;93756.88;;;11.84;48.50
15405;BME280;7801;48.124;11.590;2024-02-26T08:30:39;93752.53;;;11.11;49.93
15405;BME280;7801;48.124;11.590;2024-02-26T08:33:04;93756.31;;;10.37;50.89
15405;BME280;7801;48.124;11.590;2024-02-26T08:35:30;93759.69;;;10.13;51.77
15405;BME280;7801;48.124;11.590;2024-02-26T08:37:55;93768.91;;;9.95;53.38
15405;BME280;7801;48.124;11.590;2024-02-26T08:40:21;93767.31;;;9.82;53.67
15405;BME280;7801;48.124;11.590;2024-02-26T08:42:49;93786.78;;;9.65;53.89
15405;BME280;7801;48.124;11.590;2024-02-26T08:45:15;93794.38;;;9.54;55.36
15405;BME280;7801;48.124;11.590;2024-02-26T08:47:41;93796.09;;;9.50;54.59
15405;BME280;7801;48.124;11.590;2024-02-26T08:50:09;93794.00;;;8.64;57.59
15405;BME280;7801;48.124;11.590;2024-02-26T08:52:35;93791.69;;;8.92;57.70
15405;BME280;7801;48.124;11.590;2024-02-26T08:55:00;93794.41;;;9.25;57.68
15405;BME280;7801;48.124;11.590;2024-02-26T08:57:28;93796.41;;;9.28;56.78
15405;BME280;7801;48.124;11.590;2024-02-26T08:59:56;93786.84;;;9.36;55.75
15405;BME280;7801;48.124;11.590;2024-02-26T09:02:21;93788.84;;;9.39;56.15
15405;BME280;7801;48.124;11.590;2024-02-26T09:04:48;93792.41;;;9.22;57.28
15405;BME280;7801;48.124;11.590;2024-02-26T09:07:14;93782.88;;;9.50;56.92
15405;BME280;7801;48.124;11.590;2024-02-26T09:09:41;93790.28;;;9.36;57.11
15405;BME280;7801;48.124;11.590;2024-02-26T09:12:07;93786.53;;;9.37;57.28
15405;BME280;7801;48.124;11.590;2024-02-26T09:14:32;93789.94;;;9.58;56.55
15405;BME280;7801;48.124;11.590;2024-02-26T09:16:57;93793.62;;;9.24;56.66
15405;BME280;7801;48.124;11.590;2024-02-26T09:19:26;93791.94;;;9.61;56.02
15405;BME280;7801;48.124;11.590;2024-02-26T09:21:53;93788.19;;;9.83;55.69
15405;BME280;7801;48.124;11.590;2024-02-26T09:24:23;93785.94;;;10.06;54.50
15405;BME280;7801;48.124;11.590;2024-02-26T09:26:55;93789.28;;;10.15;54.14
15405;BME280;7801;48.124;11.590;2024-02-26T09:29:22;93794.25;;;9.84;53.66
15405;BME280;7801;48.124;11.590;2024-02-26T09:31:48;93788.81;;;9.80;54.48
15405;BME280;7801;48.124;11.590;2024-02-26T09:34:16;93791.31;;;9.64;55.26
15405;BME280;7801;48.124;11.590;2024-02-26T09:36:43;93791.25;;;9.73;55.70
15405;BME280;7801;48.124;11.590;2024-02-26T09:39:09;93791.22;;;9.94;55.64
15405;BME280;7801;48.124;11.590;2024-02-26T09:41:38;93793.09;;;10.06;55.81
15405;BME280;7801;48.124;11.590;2024-02-26T09:44:06;93785.28;;;10.09;55.65
15405;BME280;7801;48.124;11.590;2024-02-26T09:46:33;93785.28;;;10.09;55.21
15405;BME280;7801;48.124;11.590;2024-02-26T09:48:59;93782.84;;;10.04;55.86
15405;BME280;7801;48.124;11.590;2024-02-26T09:51:26;93785.34;;;9.88;57.02
15405;BME280;7801;48.124;11.590;2024-02-26T09:53:53;93777.41;;;9.68;58.15
15405;BME280;7801;48.124;11.590;2024-02-26T09:56:21;93783.97;;;9.49;59.14
15405;BME280;7801;48.124;11.590;2024-02-26T09:58:48;93775.94;;;9.37;59.40
15405;BME280;7801;48.124;11.590;2024-02-26T10:01:20;93777.50;;;9.17;60.00
15405;BME280;7801;48.124;11.590;2024-02-26T10:03:52;93784.03;;;9.20;60.62
15405;BME280;7801;48.124;11.590;2024-02-26T10:06:21;93782.56;;;9.31;60.42
15405;BME280;7801;48.124;11.590;2024-02-26T10:08:48;93780.38;;;9.33;60.39
15405;BME280;7801;48.124;11.590;2024-02-26T10:11:14;93777.12;;;9.48;59.50
15405;BME280;7801;48.124;11.590;2024-02-26T10:13:40;93772.78;;;9.64;58.01
15405;BME280;7801;48.124;11.590;2024-02-26T10:16:06;93770.25;;;9.68;57.76
15405;BME280;7801;48.124;11.590;2024-02-26T10:18:51;93766.22;;;9.83;57.26
15405;BME280;7801;48.124;11.590;2024-02-26T10:21:20;93773.47;;;9.74;57.24
15405;BME280;7801;48.124;11.590;2024-02-26T10:23:46;93770.22;;;9.89;57.22
15405;BME280;7801;48.124;11.590;2024-02-26T10:26:16;93773.72;;;9.81;56.79
15405;BME280;7801;48.124;11.590;2024-02-26T10:28:43;93765.16;;;9.96;56.29
15405;BME280;7801;48.124;11.590;2024-02-26T10:31:09;93764.47;;;9.87;56.03
15405;BME280;7801;48.124;11.590;2024-02-26T10:33:36;93768.28;;;10.10;56.02
15405;BME280;7801;48.124;11.590;2024-02-26T10:36:06;93758.13;;;10.12;55.89
15405;BME280;7801;48.124;11.590;2024-02-26T10:38:33;93758.59;;;10.14;55.94
15405;BME280;7801;48.124;11.590;2024-02-26T10:40:59;93749.78;;;10.22;55.51
15405;BME280;7801;48.124;11.590;2024-02-26T10:43:27;93746.91;;;10.27;56.20
15405;BME280;7801;48.124;11.590;2024-02-26T10:45:55;93751.53;;;10.18;56.53
15405;BME280;7801;48.124;11.590;2024-02-26T10:48:20;93744.50;;;10.35;56.00
15405;BME280;7801;48.124;11.590;2024-02-26T10:50:47;93745.25;;;10.23;56.83
15405;BME280;7801;48.124;11.590;2024-02-26T10:53:17;93746.16;;;10.27;56.96
15405;BME280;7801;48.124;11.590;2024-02-26T10:55:48;93751.19;;;10.20;56.57
15405;BME280;7801;48.124;11.590;2024-02-26T10:58:16;93757.16;;;10.17;55.11
15405;BME280;7801;48.124;11.590;2024-02-26T11:00:42;93759.94;;;10.20;55.65
15405;BME280;7801;48.124;11.590;2024-02-26T11:03:08;93758.09;;;10.33;55.15
15405;BME280;7801;48.124;11.590;2024-02-26T11:05:35;93761.50;;;10.46;54.48
15405;BME280;7801;48.124;11.590;2024-02-26T11:08:02;93768.81;;;10.61;54.32
15405;BME280;7801;48.124;11.590;2024-02-26T11:10:29;93773.78;;;10.75;53.82
15405;BME280;7801;48.124;11.590;2024-02-26T11:12:56;93777.97;;;10.88;53.88
15405;BME280;7801;48.124;11.590;2024-02-26T11:15:25;93778.19;;;10.95;53.01
15405;BME280;7801;48.124;11.590;2024-02-26T11:17:52;93787.94;;;10.91;52.71
15405;BME280;7801;48.124;11.590;2024-02-26T11:20:19;93785.72;;;10.93;53.13
15405;BME280;7801;48.124;11.590;2024-02-26T11:22:45;93777.75;;;11.05;53.14
15405;BME280;7801;48.124;11.590;2024-02-26T11:25:11;93790.13;;;11.13;52.92
15405;BME280;7801;48.124;11.590;2024-02-26T11:27:42;93792.81;;;11.01;54.28
15405;BME280;7801;48.124;11.590;2024-02-26T11:30:10;93792.03;;;11.00;53.23
15405;BME280;7801;48.124;11.590;2024-02-26T11:32:36;93790.78;;;11.10;52.46
15405;BME280;7801;48.124;11.590;2024-02-26T11:35:04;93793.56;;;11.14;51.71
15405;BME280;7801;48.124;11.590;2024-02-26T11:37:30;93794.22;;;11.11;50.94
15405;BME280;7801;48.124;11.590;2024-02-26T11:39:58;93786.00;;;11.28;50.81
15405;BME280;7801;48.124;11.590;2024-02-26T11:42:25;93780.13;;;11.34;49.75
15405;BME280;7801;48.124;11.590;2024-02-26T11:44:51;93778.69;;;11.37;50.06
15405;BME280;7801;48.124;11.590;2024-02-26T11:47:21;93782.44;;;11.36;50.59
15405;BME280;7801;48.124;11.590;2024-02-26T11:49:47;93776.91;;;11.41;49.72
15405;BME280;7801;48.124;11.590;2024-02-26T11:52:14;93773.22;;;11.46;49.30
15405;BME280;7801;48.124;11.590;2024-02-26T11:54:49;93769.13;;;11.48;49.22
15405;BME280;7801;48.124;11.590;2024-02-26T11:57:38;93768.91;;;11.53;48.72
15405;BME280;7801;48.124;11.590;2024-02-26T12:02:43;93769.81;;;11.73;48.41
15405;BME280;7801;48.124;11.590;2024-02-26T12:07:48;93765.94;;;11.83;48.55
15405;BME280;7801;48.124;11.590;2024-02-26T12:10:17;93770.84;;;11.81;47.93
15405;BME280;7801;48.124;11.590;2024-02-26T12:12:46;93769.28;;;11.80;47.43
15405;BME280;7801;48.124;11.590;2024-02-26T12:15:11;93758.87;;;12.97;69.24
15405;BME280;7801;48.124;11.590;2024-02-26T12:21:00;93752.38;;;14.49;48.39
15405;BME280;7801;48.124;11.590;2024-02-26T12:23:26;93741.63;;;15.21;47.33
15405;BME280;7801;48.124;11.590;2024-02-26T12:25:52;93745.81;;;15.48;42.56
15405;BME280;7801;48.124;11.590;2024-02-26T12:28:17;93739.78;;;16.59;42.16
15405;BME280;7801;48.124;11.590;2024-02-26T12:30:43;93744.34;;;17.06;43.00
15405;BME280;7801;48.124;11.590;2024-02-26T12:33:08;93750.37;;;17.50;40.65
15405;BME280;7801;48.124;11.590;2024-02-26T12:35:35;93755.84;;;17.68;42.04
15405;BME280;7801;48.124;11.590;2024-02-26T12:38:00;93757.09;;;17.92;40.18
15405;BME280;7801;48.124;11.590;2024-02-26T12:40:26;93777.06;;;17.33;38.36
15405;BME280;7801;48.124;11.590;2024-02-26T12:42:53;93786.91;;;16.67;37.59
15405;BME280;7801;48.124;11.590;2024-02-26T12:45:20;93789.00;;;16.88;42.42
15405;BME280;7801;48.124;11.590;2024-02-26T12:47:46;93787.81;;;16.85;41.14
15405;BME280;7801;48.124;11.590;2024-02-26T12:50:12;93790.63;;;16.99;39.94
15405;BME280;7801;48.124;11.590;2024-02-26T12:52:44;93791.59;;;16.77;41.82
15405;BME280;7801;48.124;11.590;2024-02-26T12:55:12;93787.28;;;17.13;42.10
15405;BME280;7801;48.124;11.590;2024-02-26T12:57:39;93788.63;;;16.89;40.66
15405;BME280;7801;48.124;11.590;2024-02-26T13:00:07;93795.00;;;17.22;41.10
15405;BME280;7801;48.124;11.590;2024-02-26T13:02:36;93793.53;;;16.06;41.28
15405;BME280;7801;48.124;11.590;2024-02-26T13:05:04;93815.00;;;15.27;43.17
15405;BME280;7801;48.124;11.590;2024-02-26T13:07:30;93812.87;;;14.64;45.56
15405;BME280;7801;48.124;11.590;2024-02-26T13:09:56;93811.25;;;13.98;46.79
15405;BME280;7801;48.124;11.590;2024-02-26T13:12:22;93812.06;;;13.44;47.54